createdAt,value
2023-01-13T00:00:49.300Z,-5.51
2023-01-13T00:03:36.184Z,-5.45
2023-01-13T00:06:27.877Z,-5.48
2023-01-13T00:09:14.070Z,-5.42
2023-01-13T00:12:00.654Z,-5.48
2023-01-13T00:14:47.055Z,-5.43
2023-01-13T00:17:33.497Z,-5.40
2023-01-13T00:20:19.855Z,-5.43
2023-01-13T00:23:06.170Z,-5.42
2023-01-13T00:25:57.078Z,-5.42
2023-01-13T00:28:43.440Z,-5.43
2023-01-13T00:31:30.619Z,-5.40
2023-01-13T00:34:17.657Z,-5.47
2023-01-13T00:37:04.369Z,-5.47
2023-01-13T00:39:53.767Z,-5.43
2023-01-13T00:43:15.312Z,-5.44
2023-01-13T00:46:02.781Z,-5.39
2023-01-13T00:48:49.825Z,-5.42
2023-01-13T00:51:36.038Z,-5.34
2023-01-13T00:54:22.497Z,-5.52
2023-01-13T00:57:09.571Z,-5.42
2023-01-13T00:59:55.780Z,-5.48
2023-01-13T01:02:42.249Z,-5.42
2023-01-13T01:05:28.811Z,-5.43
2023-01-13T01:08:14.976Z,-5.40
2023-01-13T01:11:11.785Z,-5.32
2023-01-13T01:14:02.059Z,-5.36
2023-01-13T01:16:48.411Z,-5.41
2023-01-13T01:19:37.486Z,-5.40
2023-01-13T01:22:23.725Z,-5.46
2023-01-13T01:25:10.411Z,-5.42
2023-01-13T01:27:56.843Z,-5.40
2023-01-13T01:30:43.361Z,-5.51
2023-01-13T01:33:29.832Z,-5.46
2023-01-13T01:36:18.962Z,-5.36
2023-01-13T01:39:05.690Z,-5.43
2023-01-13T01:42:09.939Z,-5.33
2023-01-13T01:45:12.064Z,-5.32
2023-01-13T01:48:04.958Z,-5.33
2023-01-13T01:50:52.538Z,-5.36
2023-01-13T01:53:41.765Z,-5.31
2023-01-13T01:56:28.448Z,-5.35
2023-01-13T01:59:16.279Z,-5.32
2023-01-13T02:02:03.203Z,-5.37
2023-01-13T02:04:53.585Z,-5.23
2023-01-13T02:07:43.598Z,-5.25
2023-01-13T02:10:32.189Z,-5.27
2023-01-13T02:13:18.884Z,-5.25
2023-01-13T02:16:15.458Z,-5.13
2023-01-13T02:19:25.985Z,-5.18
2023-01-13T02:22:57.904Z,-5.14
2023-01-13T02:26:08.695Z,-5.07
2023-01-13T02:29:39.515Z,-5.12
2023-01-13T02:32:51.076Z,-5.27
2023-01-13T02:35:42.145Z,-5.21
2023-01-13T02:38:38.306Z,-5.24
2023-01-13T02:42:17.360Z,-5.23
2023-01-13T02:45:17.915Z,-5.23
2023-01-13T02:48:08.970Z,-5.19
2023-01-13T02:51:08.353Z,-5.16
2023-01-13T02:54:08.732Z,-5.19
2023-01-13T02:56:58.162Z,-5.21
2023-01-13T02:59:45.174Z,-5.20
2023-01-13T03:02:31.531Z,-5.30
2023-01-13T03:05:18.194Z,-5.20
2023-01-13T03:08:10.162Z,-5.21
2023-01-13T03:11:09.817Z,-5.25
2023-01-13T03:14:42.038Z,-5.25
2023-01-13T03:18:12.431Z,-5.29
2023-01-13T03:21:27.741Z,-5.25
2023-01-13T03:24:18.228Z,-5.22
2023-01-13T03:27:31.495Z,-5.29
2023-01-13T03:30:51.027Z,-5.20
2023-01-13T03:34:08.045Z,-5.30
2023-01-13T03:36:56.800Z,-5.21
2023-01-13T03:39:50.878Z,-5.21
2023-01-13T03:42:41.679Z,-5.23
2023-01-13T03:45:31.364Z,-5.25
2023-01-13T03:48:20.425Z,-5.24
2023-01-13T03:51:10.561Z,-5.20
2023-01-13T03:54:01.815Z,-5.25
2023-01-13T03:56:54.824Z,-5.14
2023-01-13T03:59:45.683Z,-5.14
2023-01-13T04:02:55.069Z,-5.19
2023-01-13T04:05:47.603Z,-5.20
2023-01-13T04:08:37.020Z,-5.15
2023-01-13T04:11:47.172Z,-5.16
2023-01-13T04:14:35.112Z,-5.15
2023-01-13T04:17:21.793Z,-5.13
2023-01-13T04:20:09.191Z,-5.10
2023-01-13T04:22:55.721Z,-5.10
2023-01-13T04:25:43.621Z,-5.17
2023-01-13T04:28:29.858Z,-5.13
2023-01-13T04:31:16.393Z,-5.11
2023-01-13T04:34:03.107Z,-5.12
2023-01-13T04:36:49.448Z,-5.09
2023-01-13T04:39:36.144Z,-5.03
2023-01-13T04:42:22.641Z,-5.10
2023-01-13T04:45:09.972Z,-5.08
2023-01-13T04:47:56.505Z,-5.04
2023-01-13T04:50:43.012Z,-5.05
2023-01-13T04:53:29.107Z,-5.08
2023-01-13T04:56:15.035Z,-4.91
2023-01-13T04:59:01.542Z,-5.00
2023-01-13T05:01:47.971Z,-5.03
2023-01-13T05:04:34.550Z,-5.07
2023-01-13T05:07:21.029Z,-5.04
2023-01-13T05:10:08.336Z,-5.00
2023-01-13T05:13:12.723Z,-5.03
2023-01-13T05:16:19.750Z,-5.04
2023-01-13T05:19:05.870Z,-4.99
2023-01-13T05:22:10.402Z,-4.97
2023-01-13T05:25:15.412Z,-4.95
2023-01-13T05:28:01.569Z,-4.97
2023-01-13T05:30:52.548Z,-4.97
2023-01-13T05:33:38.573Z,-4.97
2023-01-13T05:36:24.518Z,-4.99
2023-01-13T05:39:10.737Z,-4.95
2023-01-13T05:42:15.293Z,-4.97
2023-01-13T05:45:01.418Z,-4.94
2023-01-13T05:47:47.954Z,-4.91
2023-01-13T05:53:40.882Z,-4.85
2023-01-13T05:56:27.141Z,-4.90
2023-01-13T05:59:13.463Z,-4.91
2023-01-13T06:01:59.976Z,-4.90
2023-01-13T06:04:46.405Z,-4.82
2023-01-13T06:07:32.869Z,-4.80
2023-01-13T06:10:19.212Z,-4.88
2023-01-13T06:13:06.577Z,-4.83
2023-01-13T06:15:58.007Z,-4.77
2023-01-13T06:18:44.471Z,-4.77
2023-01-13T06:21:33.044Z,-4.84
2023-01-13T06:24:19.406Z,-4.75
2023-01-13T06:27:08.214Z,-4.66
2023-01-13T06:29:56.646Z,-4.73
2023-01-13T06:32:50.469Z,-4.75
2023-01-13T06:35:39.461Z,-4.68
2023-01-13T06:38:28.909Z,-4.65
2023-01-13T06:41:15.836Z,-4.64
2023-01-13T06:44:01.801Z,-4.60
2023-01-13T06:46:48.588Z,-4.63
2023-01-13T06:49:35.044Z,-4.54
2023-01-13T06:52:21.867Z,-4.66
2023-01-13T06:55:08.479Z,-4.65
2023-01-13T06:57:57.698Z,-4.58
2023-01-13T07:00:43.898Z,-4.54
2023-01-13T07:03:30.477Z,-4.54
2023-01-13T07:06:16.782Z,-4.41
2023-01-13T07:09:03.142Z,-4.31
2023-01-13T07:11:49.777Z,-4.53
2023-01-13T07:14:55.027Z,-4.46
2023-01-13T07:17:41.026Z,-4.43
2023-01-13T07:20:27.319Z,-4.29
2023-01-13T07:23:13.712Z,-4.34
2023-01-13T07:26:00.239Z,-4.41
2023-01-13T07:28:46.456Z,-4.24
2023-01-13T07:31:32.818Z,-4.17
2023-01-13T10:53:26.273Z,-3.10
2023-01-13T10:56:17.512Z,-2.94
2023-01-13T10:59:30.072Z,-2.50
2023-01-13T11:02:25.860Z,-2.63
2023-01-13T11:05:24.833Z,-2.90
2023-01-13T11:08:18.881Z,-2.96
2023-01-13T11:11:40.388Z,-2.86
2023-01-13T11:14:41.451Z,-2.77
2023-01-13T11:18:08.133Z,-3.05
2023-01-13T11:20:56.588Z,-2.91
2023-01-13T11:23:50.318Z,-2.84
2023-01-13T11:27:02.102Z,-2.77
2023-01-13T11:30:35.665Z,-2.82
2023-01-13T11:33:38.805Z,-2.84
2023-01-13T11:36:33.214Z,-2.76
2023-01-13T11:39:47.624Z,-2.70
2023-01-13T11:43:01.369Z,-2.76
2023-01-13T11:46:06.870Z,-2.55
2023-01-13T11:48:56.279Z,-2.79
2023-01-13T11:52:14.033Z,-2.78
2023-01-13T11:55:35.997Z,-2.76
2023-01-13T11:59:08.391Z,-2.67
2023-01-13T12:02:19.712Z,-2.63
2023-01-13T12:05:13.698Z,-2.68
2023-01-13T12:08:47.260Z,-2.60
2023-01-13T12:12:09.271Z,-2.64
2023-01-13T12:15:13.612Z,-2.70
2023-01-13T12:18:26.793Z,-2.85
2023-01-13T12:21:26.945Z,-2.94
2023-01-13T12:24:27.929Z,-2.94
2023-01-13T12:27:27.979Z,-2.89
2023-01-13T12:30:50.783Z,-2.94
2023-01-13T12:34:01.103Z,-2.82
2023-01-13T12:37:13.465Z,-2.93
2023-01-13T12:40:16.009Z,-2.91
2023-01-13T12:43:43.891Z,-2.96
2023-01-13T12:46:29.949Z,-2.84
2023-01-13T12:49:26.319Z,-2.89
2023-01-13T12:52:18.426Z,-2.88
2023-01-13T12:55:13.874Z,-2.86
2023-01-13T12:58:06.024Z,-2.83
2023-01-13T13:01:11.980Z,-2.87
2023-01-13T13:04:14.091Z,-2.94
2023-01-13T13:07:12.861Z,-2.98
2023-01-13T13:10:06.105Z,-2.88
2023-01-13T13:13:18.076Z,-2.85
2023-01-13T13:16:26.550Z,-3.04
2023-01-13T13:19:18.907Z,-3.05
2023-01-13T13:22:14.590Z,-2.92
2023-01-13T13:25:04.064Z,-3.00
2023-01-13T13:28:18.367Z,-3.04
2023-01-13T13:31:35.267Z,-2.89
2023-01-13T13:34:30.502Z,-3.01
2023-01-13T13:37:58.979Z,-3.02
2023-01-13T13:41:05.500Z,-3.00
2023-01-13T13:44:10.592Z,-3.02
2023-01-13T13:47:01.895Z,-2.99
2023-01-13T13:49:53.805Z,-2.97
2023-01-13T13:53:02.280Z,-3.00
2023-01-13T13:56:01.714Z,-3.03
2023-01-13T13:58:49.444Z,-2.98
2023-01-13T14:01:39.015Z,-2.98
2023-01-13T14:04:30.060Z,-2.99
2023-01-13T14:07:22.514Z,-2.97
2023-01-13T14:10:28.561Z,-2.89
2023-01-13T14:13:22.238Z,-2.92
2023-01-13T14:16:14.946Z,-2.93
2023-01-13T14:19:01.220Z,-2.81
2023-01-13T14:21:48.466Z,-2.87
2023-01-13T14:24:45.741Z,-2.90
2023-01-13T14:27:31.750Z,-2.89
2023-01-13T14:30:19.509Z,-2.85
2023-01-13T14:33:06.491Z,-2.85
2023-01-13T14:36:18.586Z,-2.86
2023-01-13T14:39:04.769Z,-2.86
2023-01-13T14:41:51.110Z,-2.88
2023-01-13T14:44:37.579Z,-2.88
2023-01-13T14:47:29.011Z,-2.84
2023-01-13T14:50:28.012Z,-2.86
2023-01-13T14:53:46.263Z,-2.82
2023-01-13T14:56:53.672Z,-2.81
2023-01-13T15:00:11.962Z,-2.82
2023-01-13T15:02:58.222Z,-2.82
2023-01-13T15:05:52.957Z,-2.79
2023-01-13T15:08:40.518Z,-2.77
2023-01-13T15:11:28.974Z,-2.74
2023-01-13T15:14:23.349Z,-2.76
2023-01-13T15:17:16.783Z,-2.76
2023-01-13T15:20:03.507Z,-2.74
2023-01-13T15:22:51.969Z,-2.77
2023-01-13T15:25:43.201Z,-2.80
2023-01-13T15:28:32.175Z,-2.79
2023-01-13T15:31:19.765Z,-2.82
2023-01-13T15:34:05.895Z,-2.82
2023-01-13T15:36:52.309Z,-2.78
2023-01-13T15:39:38.873Z,-2.81
2023-01-13T15:42:43.162Z,-2.82
2023-01-13T15:45:49.742Z,-2.80
2023-01-13T15:48:36.440Z,-2.81
2023-01-13T15:51:23.209Z,-2.89
2023-01-13T15:54:09.784Z,-2.85
2023-01-13T15:56:56.548Z,-2.84
2023-01-13T15:59:42.646Z,-2.84
2023-01-13T16:02:30.945Z,-2.85
2023-01-13T19:29:09.960Z,-3.39
2023-01-13T19:31:57.151Z,-3.43
2023-01-13T19:34:44.667Z,-3.39
2023-01-13T19:37:31.544Z,-3.41
2023-01-13T19:40:17.995Z,-3.40
2023-01-13T19:43:22.789Z,-3.37
2023-01-13T19:46:09.919Z,-3.43
2023-01-13T19:48:56.344Z,-3.41
2023-01-13T19:51:42.383Z,-3.38
2023-01-13T19:54:28.671Z,-3.37
2023-01-13T19:57:15.730Z,-3.28
2023-01-13T20:00:02.796Z,-3.38
2023-01-13T20:03:03.296Z,-3.37
2023-01-13T20:05:53.571Z,-3.36
2023-01-13T20:08:40.228Z,-3.37
2023-01-13T20:11:31.408Z,-3.42
2023-01-13T20:14:17.409Z,-3.42
2023-01-13T20:17:03.864Z,-3.41
2023-01-13T20:19:50.157Z,-3.46
2023-01-13T20:22:40.731Z,-3.40
2023-01-13T20:25:28.966Z,-3.45
2023-01-13T20:28:15.214Z,-3.47
2023-01-13T20:31:05.852Z,-3.45
2023-01-13T20:33:52.114Z,-3.46
2023-01-13T20:36:39.046Z,-3.47
2023-01-13T20:39:26.640Z,-3.46
2023-01-13T20:42:31.959Z,-3.45
2023-01-13T20:45:20.849Z,-3.46
2023-01-13T20:48:07.356Z,-3.41
2023-01-13T20:50:55.151Z,-3.51
2023-01-13T20:53:41.605Z,-3.45
2023-01-13T20:56:28.150Z,-3.44
2023-01-13T20:59:14.096Z,-3.42
2023-01-13T21:02:00.575Z,-3.47
2023-01-13T21:04:46.961Z,-3.47
2023-01-13T21:07:33.408Z,-3.46
2023-01-13T21:10:19.883Z,-3.41
2023-01-13T21:13:24.586Z,-3.47
2023-01-13T21:16:10.776Z,-3.48
2023-01-13T21:19:10.582Z,-3.50
2023-01-13T21:21:57.210Z,-3.55
2023-01-13T21:24:43.525Z,-3.50
2023-01-13T21:27:31.214Z,-3.50
2023-01-13T21:30:18.046Z,-3.49
2023-01-13T21:33:06.253Z,-3.43
2023-01-13T21:35:52.537Z,-3.43
2023-01-13T21:38:38.867Z,-3.48
2023-01-13T21:41:44.871Z,-3.46
2023-01-13T21:44:49.368Z,-3.42
2023-01-13T21:47:50.565Z,-3.44
2023-01-13T21:50:38.166Z,-3.46
2023-01-13T21:53:24.709Z,-3.45
2023-01-13T21:56:10.853Z,-3.40
2023-01-13T21:58:57.445Z,-3.45
2023-01-13T22:02:23.213Z,-3.44
2023-01-13T22:04:49.719Z,-3.46
2023-01-13T22:07:38.370Z,-3.40
2023-01-13T22:10:29.757Z,-3.45
2023-01-13T22:13:34.434Z,-3.41
2023-01-13T22:16:20.994Z,-3.44
2023-01-13T22:19:09.614Z,-3.46
2023-01-13T22:21:55.680Z,-3.41
2023-01-13T22:24:43.643Z,-3.47
2023-01-13T22:27:30.888Z,-3.45
2023-01-13T22:30:21.719Z,-3.42
2023-01-13T22:33:07.969Z,-3.45
2023-01-13T22:35:56.039Z,-3.44
2023-01-13T22:38:42.508Z,-3.46
2023-01-13T22:41:28.975Z,-3.50
2023-01-13T22:44:15.437Z,-3.45
2023-01-13T22:47:01.761Z,-3.42
2023-01-13T22:49:48.221Z,-3.45
2023-01-13T22:52:35.651Z,-3.43
2023-01-13T22:55:21.807Z,-3.46
2023-01-13T22:58:08.131Z,-3.44
2023-01-13T23:00:55.830Z,-3.45
2023-01-13T23:03:45.268Z,-3.42
2023-01-13T23:06:34.052Z,-3.45
2023-01-13T23:09:20.753Z,-3.42
2023-01-13T23:12:06.958Z,-3.38
2023-01-13T23:14:53.039Z,-3.45
2023-01-13T23:17:39.017Z,-3.43
2023-01-13T23:20:25.394Z,-3.46
2023-01-13T23:23:11.888Z,-3.51
2023-01-13T23:25:58.253Z,-3.44
2023-01-13T23:28:44.608Z,-3.54
2023-01-13T23:31:30.940Z,-3.51
2023-01-13T23:34:17.257Z,-3.46
2023-01-13T23:37:04.110Z,-3.52
2023-01-13T23:39:51.061Z,-3.50
2023-01-13T23:42:37.408Z,-3.52
2023-01-13T23:45:24.035Z,-3.42
2023-01-13T23:48:10.490Z,-3.48
2023-01-13T23:50:59.038Z,-3.50
2023-01-13T23:53:47.245Z,-3.44
2023-01-13T23:56:34.955Z,-3.51
2023-01-13T23:59:21.472Z,-3.46
